Time,TemperatureF,DewpointF,PressureIn,WindDirection,WindDirectionDegrees,WindSpeedMPH,WindSpeedGustMPH,Humidity,HourlyPrecipIn,Conditions,Clouds,dailyrainin,SoftwareType,DateUTC
2013-11-03 00:02:00,35.4,31.6,30.23,SE,135,0.0,0.0,86,0.00,,,0.00,meteohub,2013-11-03 05:02:00,
2013-11-03 00:07:00,35.4,31.6,30.24,SSE,158,0.0,0.0,86,0.00,,,0.00,meteohub,2013-11-03 05:07:00,
2013-11-03 00:12:00,35.4,31.6,30.24,SSE,158,0.0,0.0,86,0.00,,,0.00,meteohub,2013-11-03 05:12:00,
2013-11-03 00:17:00,35.4,31.6,30.24,SSE,158,0.0,0.0,86,0.00,,,0.00,meteohub,2013-11-03 05:17:00,
2013-11-03 00:22:00,35.4,31.6,30.24,South,180,0.0,0.0,86,0.00,,,0.00,meteohub,2013-11-03 05:22:00,
2013-11-03 00:27:00,35.1,31.3,30.25,SSE,158,0.0,0.0,86,0.00,,,0.00,meteohub,2013-11-03 05:27:00,
2013-11-03 00:32:00,34.9,31.1,30.25,South,180,0.0,0.0,86,0.00,,,0.00,meteohub,2013-11-03 05:32:00,
2013-11-03 00:37:00,35.1,31.3,30.25,SE,135,0.0,0.0,86,0.00,,,0.00,meteohub,2013-11-03 05:37:00,
2013-11-03 00:42:00,34.9,31.1,30.25,SSE,158,0.0,0.0,86,0.00,,,0.00,meteohub,2013-11-03 05:42:00,
2013-11-03 00:47:00,34.7,30.9,30.26,ESE,113,0.0,0.0,86,0.00,,,0.00,meteohub,2013-11-03 05:47:00,
2013-11-03 00:52:00,34.7,30.9,30.26,ESE,113,0.0,0.0,86,0.00,,,0.00,meteohub,2013-11-03 05:52:00,
2013-11-03 00:57:00,34.3,30.6,30.26,ESE,113,0.0,0.0,86,0.00,,,0.00,meteohub,2013-11-03 05:57:00,
2013-11-03 01:02:00,34.3,30.6,30.26,WSW,248,0.0,0.0,86,0.00,,,0.00,meteohub,2013-11-03 06:02:00,
2013-11-03 01:07:00,34.3,30.6,30.27,WSW,248,0.0,0.0,86,0.00,,,0.00,meteohub,2013-11-03 06:07:00,
2013-11-03 01:12:00,34.3,30.6,30.27,WSW,248,0.0,0.0,86,0.00,,,0.00,meteohub,2013-11-03 06:12:00,
2013-11-03 01:17:00,34.2,30.7,30.27,SE,135,0.0,0.0,87,0.00,,,0.00,meteohub,2013-11-03 06:17:00,
2013-11-03 01:22:00,34.0,30.6,30.27,ESE,113,0.0,0.0,87,0.00,,,0.00,meteohub,2013-11-03 06:22:00,
2013-11-03 01:27:00,34.0,30.6,30.29,SW,225,0.0,0.0,87,0.00,,,0.00,meteohub,2013-11-03 06:27:00,
2013-11-03 01:32:00,33.8,30.4,30.29,ESE,113,0.0,0.0,87,0.00,,,0.00,meteohub,2013-11-03 06:32:00,
2013-11-03 01:37:00,33.6,30.2,30.30,ESE,113,0.0,0.0,87,0.00,,,0.00,meteohub,2013-11-03 06:37:00,
2013-11-03 01:42:00,33.6,30.2,30.30,SE,135,0.0,0.0,87,0.00,,,0.00,meteohub,2013-11-03 06:42:00,
2013-11-03 01:47:00,33.6,30.2,30.25,SW,225,0.0,0.0,87,0.00,,,0.00,meteohub,2013-11-03 06:47:00,
2013-11-03 01:52:00,33.4,30.0,30.25,ESE,113,0.0,0.0,87,0.00,,,0.00,meteohub,2013-11-03 06:52:00,
2013-11-03 01:57:00,33.6,30.2,30.25,SE,135,0.0,0.0,87,0.00,,,0.00,meteohub,2013-11-03 06:57:00,
2013-11-03 01:02:00,33.4,30.0,30.25,ESE,113,0.0,0.0,87,0.00,,,0.00,meteohub,2013-11-03 07:02:00,
2013-11-03 01:07:00,33.6,30.2,30.26,ESE,113,0.0,0.0,87,0.00,,,0.00,meteohub,2013-11-03 07:07:00,
2013-11-03 01:12:00,33.4,30.0,30.26,ESE,113,0.0,0.0,87,0.00,,,0.00,meteohub,2013-11-03 07:12:00,
2013-11-03 01:17:00,33.4,30.0,30.26,ESE,113,0.0,0.0,87,0.00,,,0.00,meteohub,2013-11-03 07:17:00,
2013-11-03 01:22:00,33.4,30.0,30.26,SW,225,0.0,0.0,87,0.00,,,0.00,meteohub,2013-11-03 07:22:00,
2013-11-03 01:27:00,33.3,29.8,30.23,WSW,248,0.0,0.0,87,0.00,,,0.00,meteohub,2013-11-03 07:27:00,
2013-11-03 01:32:00,33.3,29.8,30.23,WSW,248,0.0,0.0,87,0.00,,,0.00,meteohub,2013-11-03 07:32:00,
2013-11-03 01:37:00,33.3,29.8,30.23,SW,225,0.0,0.0,87,0.00,,,0.00,meteohub,2013-11-03 07:37:00,
2013-11-03 01:42:00,33.1,29.7,30.23,South,180,0.0,0.0,87,0.00,,,0.00,meteohub,2013-11-03 07:42:00,
2013-11-03 01:47:00,32.9,29.5,30.23,South,180,0.0,0.0,87,0.00,,,0.00,meteohub,2013-11-03 07:47:00,
2013-11-03 01:52:00,32.7,29.5,30.23,South,180,0.0,0.0,88,0.00,,,0.00,meteohub,2013-11-03 07:52:00,
2013-11-03 01:57:00,32.7,29.5,30.23,SSE,158,0.0,0.0,88,0.00,,,0.00,meteohub,2013-11-03 07:57:00,
2013-11-03 02:02:00,32.7,29.5,30.23,WSW,248,0.0,0.0,88,0.00,,,0.00,meteohub,2013-11-03 08:02:00,
2013-11-03 02:07:00,32.7,29.5,30.22,WSW,248,0.0,0.0,88,0.00,,,0.00,meteohub,2013-11-03 08:07:00,
2013-11-03 02:12:00,32.7,29.5,30.22,West,270,0.0,0.0,88,0.00,,,0.00,meteohub,2013-11-03 08:12:00,
2013-11-03 02:17:00,32.7,29.5,30.22,WNW,293,0.0,0.0,88,0.00,,,0.00,meteohub,2013-11-03 08:17:00,
2013-11-03 02:22:00,32.7,29.5,30.23,SW,225,0.0,0.0,88,0.00,,,0.00,meteohub,2013-11-03 08:22:00,
2013-11-03 02:27:00,32.5,29.3,30.23,WSW,248,0.0,0.0,88,0.00,,,0.00,meteohub,2013-11-03 08:27:00,
2013-11-03 02:32:00,32.5,29.3,30.23,West,270,0.0,0.0,88,0.00,,,0.00,meteohub,2013-11-03 08:32:00,
2013-11-03 02:37:00,32.5,29.3,30.23,ESE,113,0.0,0.0,88,0.00,,,0.00,meteohub,2013-11-03 08:37:00,
2013-11-03 02:42:00,32.5,29.3,30.23,ESE,113,0.0,0.0,88,0.00,,,0.00,meteohub,2013-11-03 08:42:00,
2013-11-03 02:47:00,32.5,29.3,30.22,SE,135,0.0,0.0,88,0.00,,,0.00,meteohub,2013-11-03 08:47:00,
2013-11-03 02:52:00,32.5,29.3,30.22,South,180,0.0,0.0,88,0.00,,,0.00,meteohub,2013-11-03 08:52:00,
2013-11-03 02:57:00,32.5,29.3,30.22,SE,135,0.0,0.0,88,0.00,,,0.00,meteohub,2013-11-03 08:57:00,
2013-11-03 03:02:00,32.5,29.3,30.22,WSW,248,0.0,0.0,88,0.00,,,0.00,meteohub,2013-11-03 09:02:00,
2013-11-03 03:07:00,32.2,28.9,30.23,WSW,248,0.0,0.0,88,0.00,,,0.00,meteohub,2013-11-03 09:07:00,
2013-11-03 03:12:00,32.0,28.9,30.23,South,180,0.0,0.0,88,0.00,,,0.00,meteohub,2013-11-03 09:12:00,
2013-11-03 03:17:00,32.0,28.9,30.23,WSW,248,0.0,0.0,88,0.00,,,0.00,meteohub,2013-11-03 09:17:00,
2013-11-03 03:22:00,31.8,28.8,30.23,WSW,248,0.0,0.0,88,0.00,,,0.00,meteohub,2013-11-03 09:22:00,
2013-11-03 03:27:00,31.8,28.8,30.23,ESE,113,0.0,0.0,88,0.00,,,0.00,meteohub,2013-11-03 09:27:00,
2013-11-03 03:32:00,31.8,28.9,30.23,SE,135,0.0,0.0,89,0.00,,,0.00,meteohub,2013-11-03 09:32:00,
2013-11-03 03:37:00,31.6,28.8,30.24,SE,135,0.0,0.0,89,0.00,,,0.00,meteohub,2013-11-03 09:37:00,
2013-11-03 03:42:00,31.6,28.8,30.22,East,90,0.0,0.0,89,0.00,,,0.00,meteohub,2013-11-03 09:42:00,
2013-11-03 03:47:00,31.8,28.9,30.22,SSE,158,0.0,0.0,89,0.00,,,0.00,meteohub,2013-11-03 09:47:00,
2013-11-03 03:52:00,31.8,28.9,30.22,SSE,158,0.0,0.0,89,0.00,,,0.00,meteohub,2013-11-03 09:52:00,
2013-11-03 03:58:00,31.8,28.9,30.22,SSE,158,0.0,0.0,89,0.00,,,0.00,meteohub,2013-11-03 09:58:00,
2013-11-03 04:03:00,31.8,28.9,30.22,SSE,158,0.0,0.0,89,0.00,,,0.00,meteohub,2013-11-03 10:03:00,
2013-11-03 04:08:00,31.8,28.9,30.22,WSW,248,0.0,0.0,89,0.00,,,0.00,meteohub,2013-11-03 10:08:00,
2013-11-03 04:13:00,31.8,28.9,30.22,SSW,203,0.0,0.0,89,0.00,,,0.00,meteohub,2013-11-03 10:13:00,
2013-11-03 04:18:00,31.8,28.9,30.22,WSW,248,0.0,0.0,89,0.00,,,0.00,meteohub,2013-11-03 10:18:00,
2013-11-03 04:23:00,31.8,28.9,30.23,WSW,248,0.0,0.0,89,0.00,,,0.00,meteohub,2013-11-03 10:23:00,
2013-11-03 04:28:00,31.5,28.6,30.23,WSW,248,0.0,0.0,89,0.00,,,0.00,meteohub,2013-11-03 10:28:00,
2013-11-03 04:33:00,31.5,28.6,30.23,WSW,248,0.0,0.0,89,0.00,,,0.00,meteohub,2013-11-03 10:33:00,
2013-11-03 04:38:00,31.5,28.6,30.23,WSW,248,0.0,0.0,89,0.00,,,0.00,meteohub,2013-11-03 10:38:00,
2013-11-03 04:43:00,31.3,28.4,30.23,ESE,113,0.0,0.0,89,0.00,,,0.00,meteohub,2013-11-03 10:43:00,
2013-11-03 04:48:00,31.3,28.4,30.23,ESE,113,0.0,0.0,89,0.00,,,0.00,meteohub,2013-11-03 10:48:00,
2013-11-03 04:53:00,31.5,28.6,30.23,WNW,293,0.0,0.0,89,0.00,,,0.00,meteohub,2013-11-03 10:53:00,
2013-11-03 04:58:00,31.5,28.6,30.23,West,270,0.0,0.0,89,0.00,,,0.00,meteohub,2013-11-03 10:58:00,
2013-11-03 05:03:00,31.1,28.2,30.23,ENE,68,0.0,0.0,89,0.00,,,0.00,meteohub,2013-11-03 11:03:00,
2013-11-03 05:08:00,31.1,28.2,30.23,ENE,68,0.0,0.0,89,0.00,,,0.00,meteohub,2013-11-03 11:08:00,
2013-11-03 05:13:00,31.1,28.2,30.23,WSW,248,0.0,0.0,89,0.00,,,0.00,meteohub,2013-11-03 11:13:00,
2013-11-03 05:18:00,31.1,28.2,30.23,WSW,248,0.0,0.0,89,0.00,,,0.00,meteohub,2013-11-03 11:18:00,
2013-11-03 05:23:00,31.1,28.2,30.22,South,180,0.0,0.0,89,0.00,,,0.00,meteohub,2013-11-03 11:23:00,
2013-11-03 05:28:00,31.1,28.2,30.22,South,180,0.0,0.0,89,0.00,,,0.00,meteohub,2013-11-03 11:28:00,
2013-11-03 05:33:00,31.1,28.2,30.22,WSW,248,0.0,0.0,89,0.00,,,0.00,meteohub,2013-11-03 11:33:00,
2013-11-03 05:38:00,30.9,28.0,30.22,SSW,203,0.0,0.0,89,0.00,,,0.00,meteohub,2013-11-03 11:38:00,
2013-11-03 05:43:00,31.1,28.2,30.22,West,270,0.0,0.0,89,0.00,,,0.00,meteohub,2013-11-03 11:43:00,
2013-11-03 05:48:00,31.1,28.2,30.22,WSW,248,0.0,0.0,89,0.00,,,0.00,meteohub,2013-11-03 11:48:00,
2013-11-03 05:53:00,31.1,28.2,30.22,South,180,0.0,0.0,89,0.00,,,0.00,meteohub,2013-11-03 11:53:00,
2013-11-03 05:58:00,30.7,27.9,30.22,South,180,0.0,0.0,89,0.00,,,0.00,meteohub,2013-11-03 11:58:00,
2013-11-03 06:03:00,30.7,27.9,30.23,South,180,0.0,0.0,89,0.00,,,0.00,meteohub,2013-11-03 12:03:00,
2013-11-03 06:08:00,30.7,27.9,30.23,West,270,0.0,0.0,89,0.00,,,0.00,meteohub,2013-11-03 12:08:00,
2013-11-03 06:13:00,30.7,27.9,30.23,WSW,248,0.0,0.0,89,0.00,,,0.00,meteohub,2013-11-03 12:13:00,
2013-11-03 06:18:00,30.7,27.9,30.23,WSW,248,0.0,0.0,89,0.00,,,0.00,meteohub,2013-11-03 12:18:00,
2013-11-03 06:23:00,30.7,27.9,30.22,ESE,113,0.0,0.0,89,0.00,,,0.00,meteohub,2013-11-03 12:23:00,
2013-11-03 06:28:00,30.7,27.9,30.22,West,270,0.0,0.0,89,0.00,,,0.00,meteohub,2013-11-03 12:28:00,
2013-11-03 06:33:00,30.7,27.9,30.22,WSW,248,0.0,0.0,89,0.00,,,0.00,meteohub,2013-11-03 12:33:00,
2013-11-03 06:38:00,30.7,28.2,30.22,WSW,248,0.0,0.0,90,0.00,,,0.00,meteohub,2013-11-03 12:38:00,
2013-11-03 06:43:00,30.7,28.2,30.23,ESE,113,0.0,0.0,90,0.00,,,0.00,meteohub,2013-11-03 12:43:00,
2013-11-03 06:48:00,30.6,27.7,30.24,ESE,113,0.0,0.0,89,0.00,,,0.00,meteohub,2013-11-03 12:48:00,
2013-11-03 06:53:00,30.6,28.0,30.24,ESE,113,0.0,0.0,90,0.00,,,0.00,meteohub,2013-11-03 12:53:00,
2013-11-03 06:58:00,30.6,28.0,30.24,WSW,248,0.0,0.0,90,0.00,,,0.00,meteohub,2013-11-03 12:58:00,
2013-11-03 07:03:00,30.7,28.2,30.23,WSW,248,0.0,0.0,90,0.00,,,0.00,meteohub,2013-11-03 13:03:00,
2013-11-03 07:09:00,30.7,28.2,30.23,WSW,248,0.0,0.0,90,0.00,,,0.00,meteohub,2013-11-03 13:09:00,
2013-11-03 07:14:00,30.7,28.2,30.23,WSW,248,0.0,0.0,90,0.00,,,0.00,meteohub,2013-11-03 13:14:00,
2013-11-03 07:19:00,30.7,28.2,30.23,WSW,248,0.0,0.0,90,0.00,,,0.00,meteohub,2013-11-03 13:19:00,
2013-11-03 07:24:00,30.7,28.2,30.24,WSW,248,0.0,0.0,90,0.00,,,0.00,meteohub,2013-11-03 13:24:00,
2013-11-03 07:29:00,31.1,28.6,30.24,WSW,248,0.0,0.0,90,0.00,,,0.00,meteohub,2013-11-03 13:29:00,
2013-11-03 07:34:00,31.1,28.6,30.24,WSW,248,0.0,0.0,90,0.00,,,0.00,meteohub,2013-11-03 13:34:00,
2013-11-03 07:39:00,31.3,28.8,30.24,WNW,293,0.0,0.0,90,0.00,,,0.00,meteohub,2013-11-03 13:39:00,
2013-11-03 07:44:00,31.8,29.3,30.24,WSW,248,0.0,0.0,90,0.00,,,0.00,meteohub,2013-11-03 13:44:00,
2013-11-03 07:49:00,31.8,29.5,30.24,WSW,248,0.0,0.0,91,0.00,,,0.00,meteohub,2013-11-03 13:49:00,
2013-11-03 07:54:00,32.2,29.8,30.24,WSW,248,0.0,0.0,91,0.00,,,0.00,meteohub,2013-11-03 13:54:00,
2013-11-03 07:59:00,32.7,30.4,30.24,West,270,0.0,0.0,91,0.00,,,0.00,meteohub,2013-11-03 13:59:00,
2013-11-03 08:04:00,33.3,30.9,30.25,NE,45,0.0,0.0,91,0.00,,,0.00,meteohub,2013-11-03 14:04:00,
2013-11-03 08:09:00,34.7,32.5,30.25,SE,135,0.0,0.0,92,0.00,,,0.00,meteohub,2013-11-03 14:09:00,
2013-11-03 08:14:00,35.6,33.4,30.24,ENE,68,0.0,0.0,92,0.00,,,0.00,meteohub,2013-11-03 14:14:00,
2013-11-03 08:19:00,37.0,35.2,30.24,ENE,68,0.0,0.0,93,0.00,,,0.00,meteohub,2013-11-03 14:19:00,
2013-11-03 08:24:00,37.9,36.1,30.22,ESE,113,2.0,2.0,93,0.00,,,0.00,meteohub,2013-11-03 14:24:00,
2013-11-03 08:29:00,39.0,37.2,30.22,ESE,113,0.0,2.0,93,0.00,,,0.00,meteohub,2013-11-03 14:29:00,
2013-11-03 08:34:00,39.9,38.1,30.22,South,180,0.0,2.0,93,0.00,,,0.00,meteohub,2013-11-03 14:34:00,
2013-11-03 08:39:00,40.8,39.0,30.22,SE,135,2.0,3.0,93,0.00,,,0.00,meteohub,2013-11-03 14:39:00,
2013-11-03 08:44:00,41.4,39.6,30.24,ESE,113,3.0,3.0,93,0.00,,,0.00,meteohub,2013-11-03 14:44:00,
2013-11-03 08:49:00,42.1,39.9,30.24,WNW,293,0.0,3.0,92,0.00,,,0.00,meteohub,2013-11-03 14:49:00,
2013-11-03 08:54:00,43.0,40.8,30.24,SE,135,2.0,3.0,92,0.00,,,0.00,meteohub,2013-11-03 14:54:00,
2013-11-03 08:59:00,43.7,41.2,30.24,WSW,248,0.0,3.0,91,0.00,,,0.00,meteohub,2013-11-03 14:59:00,
2013-11-03 09:04:00,44.2,41.5,30.22,SE,135,2.0,3.0,90,0.00,,,0.00,meteohub,2013-11-03 15:04:00,
2013-11-03 09:09:00,44.8,41.4,30.21,ESE,113,4.0,4.0,88,0.00,,,0.00,meteohub,2013-11-03 15:09:00,
2013-11-03 09:14:00,45.3,41.4,30.21,ESE,113,3.0,4.0,86,0.00,,,0.00,meteohub,2013-11-03 15:14:00,
2013-11-03 09:19:00,45.9,41.5,30.21,ENE,68,0.0,4.0,85,0.00,,,0.00,meteohub,2013-11-03 15:19:00,
2013-11-03 09:24:00,46.4,41.5,30.24,South,180,0.0,4.0,83,0.00,,,0.00,meteohub,2013-11-03 15:24:00,
2013-11-03 09:29:00,46.8,41.2,30.24,ESE,113,3.0,4.0,81,0.00,,,0.00,meteohub,2013-11-03 15:29:00,
2013-11-03 09:34:00,47.3,41.4,30.24,WSW,248,0.0,5.0,80,0.00,,,0.00,meteohub,2013-11-03 15:34:00,
2013-11-03 09:39:00,47.7,41.5,30.24,SE,135,4.0,5.0,79,0.00,,,0.00,meteohub,2013-11-03 15:39:00,
2013-11-03 09:44:00,48.2,42.1,30.23,ESE,113,3.0,5.0,79,0.00,,,0.00,meteohub,2013-11-03 15:44:00,
2013-11-03 09:49:00,48.6,41.7,30.23,East,90,2.0,4.0,77,0.00,,,0.00,meteohub,2013-11-03 15:49:00,
2013-11-03 09:54:00,49.3,42.1,30.22,SE,135,0.0,4.0,76,0.00,,,0.00,meteohub,2013-11-03 15:54:00,
2013-11-03 10:00:00,49.8,42.3,30.22,ESE,113,0.0,4.0,75,0.00,,,0.00,meteohub,2013-11-03 16:00:00,
2013-11-03 10:04:00,50.2,42.3,30.23,ESE,113,3.0,4.0,74,0.00,,,0.00,meteohub,2013-11-03 16:04:00,
2013-11-03 10:10:00,50.5,42.6,30.23,East,90,0.0,4.0,74,0.00,,,0.00,meteohub,2013-11-03 16:10:00,
2013-11-03 10:15:00,50.7,42.1,30.23,ESE,113,2.0,4.0,72,0.00,,,0.00,meteohub,2013-11-03 16:15:00,
2013-11-03 10:20:00,51.3,43.0,30.23,SE,135,2.0,3.0,73,0.00,,,0.00,meteohub,2013-11-03 16:20:00,
2013-11-03 10:25:00,51.4,41.9,30.20,SE,135,0.0,2.0,70,0.00,,,0.00,meteohub,2013-11-03 16:25:00,
2013-11-03 10:30:00,51.6,41.7,30.20,SSE,158,13.0,13.0,69,0.00,,,0.00,meteohub,2013-11-03 16:30:00,
2013-11-03 10:35:00,51.6,41.4,30.20,WSW,248,7.0,13.0,68,0.00,,,0.00,meteohub,2013-11-03 16:35:00,
2013-11-03 10:40:00,52.0,41.7,30.20,ENE,68,0.0,13.0,68,0.00,,,0.00,meteohub,2013-11-03 16:40:00,
2013-11-03 10:45:00,52.2,41.9,30.21,SE,135,5.0,7.0,68,0.00,,,0.00,meteohub,2013-11-03 16:45:00,
2013-11-03 10:50:00,52.3,41.7,30.21,ESE,113,5.0,7.0,67,0.00,,,0.00,meteohub,2013-11-03 16:50:00,
2013-11-03 10:55:00,52.7,41.7,30.21,SE,135,4.0,5.0,66,0.00,,,0.00,meteohub,2013-11-03 16:55:00,
2013-11-03 11:00:00,52.7,40.8,30.21,SSE,158,2.0,8.0,64,0.00,,,0.00,meteohub,2013-11-03 17:00:00,
2013-11-03 11:05:00,52.7,40.8,30.20,ENE,68,4.0,8.0,64,0.00,,,0.00,meteohub,2013-11-03 17:05:00,
2013-11-03 11:10:00,52.7,40.8,30.20,SE,135,5.0,8.0,64,0.00,,,0.00,meteohub,2013-11-03 17:10:00,
2013-11-03 11:15:00,53.1,40.8,30.20,SE,135,4.0,5.0,63,0.00,,,0.00,meteohub,2013-11-03 17:15:00,
2013-11-03 11:20:00,53.2,40.6,30.20,SE,135,6.0,6.0,62,0.00,,,0.00,meteohub,2013-11-03 17:20:00,
2013-11-03 11:25:00,53.4,40.6,30.18,NE,45,2.0,6.0,62,0.00,,,0.00,meteohub,2013-11-03 17:25:00,
2013-11-03 11:30:00,53.6,41.4,30.18,ESE,113,2.0,14.0,63,0.00,,,0.00,meteohub,2013-11-03 17:30:00,
2013-11-03 11:35:00,54.1,41.0,30.18,ESE,113,3.0,14.0,61,0.00,,,0.00,meteohub,2013-11-03 17:35:00,
2013-11-03 11:40:00,54.1,41.0,30.18,SSE,158,2.0,4.0,61,0.00,,,0.00,meteohub,2013-11-03 17:40:00,
2013-11-03 11:45:00,54.3,41.2,30.17,East,90,2.0,4.0,61,0.00,,,0.00,meteohub,2013-11-03 17:45:00,
2013-11-03 11:50:00,54.5,40.8,30.17,SE,135,5.0,5.0,60,0.00,,,0.00,meteohub,2013-11-03 17:50:00,
2013-11-03 11:55:00,54.5,40.8,30.17,SE,135,7.0,7.0,60,0.00,,,0.00,meteohub,2013-11-03 17:55:00,
2013-11-03 12:00:00,54.3,40.8,30.17,SSE,158,6.0,7.0,60,0.00,,,0.00,meteohub,2013-11-03 18:00:00,
2013-11-03 12:05:00,54.3,40.8,30.16,SE,135,3.0,7.0,60,0.00,,,0.00,meteohub,2013-11-03 18:05:00,
2013-11-03 12:10:00,54.3,40.8,30.16,SE,135,3.0,7.0,60,0.00,,,0.00,meteohub,2013-11-03 18:10:00,
2013-11-03 12:15:00,54.7,41.5,30.15,East,90,0.0,5.0,61,0.00,,,0.00,meteohub,2013-11-03 18:15:00,
2013-11-03 12:20:00,55.0,42.3,30.15,ESE,113,4.0,4.0,62,0.00,,,0.00,meteohub,2013-11-03 18:20:00,
2013-11-03 12:25:00,55.4,42.3,30.14,SE,135,3.0,4.0,61,0.00,,,0.00,meteohub,2013-11-03 18:25:00,
2013-11-03 12:30:00,55.6,42.3,30.14,SE,135,4.0,6.0,61,0.00,,,0.00,meteohub,2013-11-03 18:30:00,
2013-11-03 12:35:00,55.4,41.7,30.14,SSE,158,2.0,6.0,60,0.00,,,0.00,meteohub,2013-11-03 18:35:00,
2013-11-03 12:40:00,55.6,41.9,30.14,WSW,248,6.0,6.0,60,0.00,,,0.00,meteohub,2013-11-03 18:40:00,
2013-11-03 12:45:00,55.6,41.9,30.12,ENE,68,4.0,7.0,60,0.00,,,0.00,meteohub,2013-11-03 18:45:00,
2013-11-03 12:50:00,55.6,41.9,30.12,ESE,113,2.0,7.0,60,0.00,,,0.00,meteohub,2013-11-03 18:50:00,
2013-11-03 12:55:00,55.8,42.1,30.12,SSE,158,3.0,6.0,60,0.00,,,0.00,meteohub,2013-11-03 18:55:00,
2013-11-03 13:00:00,56.1,41.9,30.12,ESE,113,3.0,8.0,59,0.00,,,0.00,meteohub,2013-11-03 19:00:00,
2013-11-03 13:05:00,56.5,41.9,30.11,SE,135,7.0,8.0,58,0.00,,,0.00,meteohub,2013-11-03 19:05:00,
2013-11-03 13:10:00,56.3,41.2,30.11,East,90,0.0,7.0,57,0.00,,,0.00,meteohub,2013-11-03 19:10:00,
2013-11-03 13:15:00,56.5,41.0,30.11,ESE,113,7.0,7.0,56,0.00,,,0.00,meteohub,2013-11-03 19:15:00,
2013-11-03 13:20:00,56.5,41.0,30.11,ESE,113,6.0,7.0,56,0.00,,,0.00,meteohub,2013-11-03 19:20:00,
2013-11-03 13:25:00,56.3,41.2,30.12,South,180,6.0,7.0,57,0.00,,,0.00,meteohub,2013-11-03 19:25:00,
2013-11-03 13:30:00,56.5,41.9,30.12,ESE,113,0.0,7.0,58,0.00,,,0.00,meteohub,2013-11-03 19:30:00,
2013-11-03 13:35:00,57.0,41.5,30.12,SSW,203,5.0,6.0,56,0.00,,,0.00,meteohub,2013-11-03 19:35:00,
2013-11-03 13:40:00,57.0,40.5,30.12,ESE,113,6.0,6.0,54,0.00,,,0.00,meteohub,2013-11-03 19:40:00,
2013-11-03 13:45:00,56.8,40.5,30.09,SE,135,6.0,6.0,54,0.00,,,0.00,meteohub,2013-11-03 19:45:00,
2013-11-03 13:50:00,57.4,40.8,30.09,ESE,113,4.0,6.0,54,0.00,,,0.00,meteohub,2013-11-03 19:50:00,
2013-11-03 13:55:00,57.2,40.3,30.09,ESE,113,4.0,6.0,53,0.00,,,0.00,meteohub,2013-11-03 19:55:00,
2013-11-03 14:00:00,57.0,40.1,30.09,ESE,113,4.0,6.0,53,0.00,,,0.00,meteohub,2013-11-03 20:00:00,
2013-11-03 14:06:00,57.0,40.5,30.08,ESE,113,5.0,5.0,54,0.00,,,0.00,meteohub,2013-11-03 20:06:00,
2013-11-03 14:11:00,57.2,40.6,30.08,ESE,113,4.0,5.0,54,0.00,,,0.00,meteohub,2013-11-03 20:11:00,
2013-11-03 14:16:00,57.7,41.2,30.08,ESE,113,2.0,5.0,54,0.00,,,0.00,meteohub,2013-11-03 20:16:00,
2013-11-03 14:21:00,57.9,40.5,30.08,ESE,113,1.0,6.0,52,0.00,,,0.00,meteohub,2013-11-03 20:21:00,
2013-11-03 14:26:00,57.9,40.8,30.09,ESE,113,2.0,8.0,53,0.00,,,0.00,meteohub,2013-11-03 20:26:00,
2013-11-03 14:31:00,57.9,40.5,30.09,East,90,2.0,8.0,52,0.00,,,0.00,meteohub,2013-11-03 20:31:00,
2013-11-03 14:36:00,57.9,40.8,30.09,ESE,113,2.0,8.0,53,0.00,,,0.00,meteohub,2013-11-03 20:36:00,
2013-11-03 14:41:00,57.7,41.2,30.09,East,90,0.0,4.0,54,0.00,,,0.00,meteohub,2013-11-03 20:41:00,
2013-11-03 14:46:00,57.4,40.8,30.08,ESE,113,0.0,4.0,54,0.00,,,0.00,meteohub,2013-11-03 20:46:00,
2013-11-03 14:51:00,57.2,40.3,30.08,ESE,113,3.0,4.0,53,0.00,,,0.00,meteohub,2013-11-03 20:51:00,
2013-11-03 14:56:00,57.4,40.8,30.08,ESE,113,1.0,4.0,54,0.00,,,0.00,meteohub,2013-11-03 20:56:00,
2013-11-03 15:01:00,57.2,41.2,30.08,SSE,158,0.0,4.0,55,0.00,,,0.00,meteohub,2013-11-03 21:01:00,
2013-11-03 15:06:00,57.4,41.4,30.07,SE,135,0.0,3.0,55,0.00,,,0.00,meteohub,2013-11-03 21:06:00,
2013-11-03 15:11:00,57.4,41.4,30.07,SE,135,0.0,3.0,55,0.00,,,0.00,meteohub,2013-11-03 21:11:00,
2013-11-03 15:16:00,57.2,41.7,30.07,NW,315,0.0,2.0,56,0.00,,,0.00,meteohub,2013-11-03 21:16:00,
2013-11-03 15:21:00,57.2,41.2,30.07,SE,135,2.0,2.0,55,0.00,,,0.00,meteohub,2013-11-03 21:21:00,
2013-11-03 15:26:00,57.2,40.6,30.05,East,90,4.0,4.0,54,0.00,,,0.00,meteohub,2013-11-03 21:26:00,
2013-11-03 15:31:00,57.4,40.8,30.05,ESE,113,2.0,4.0,54,0.00,,,0.00,meteohub,2013-11-03 21:31:00,
2013-11-03 15:36:00,57.0,41.0,30.05,East,90,1.0,4.0,55,0.00,,,0.00,meteohub,2013-11-03 21:36:00,
2013-11-03 15:41:00,56.8,40.8,30.05,SE,135,2.0,4.0,55,0.00,,,0.00,meteohub,2013-11-03 21:41:00,
2013-11-03 15:46:00,57.0,41.0,30.03,SSE,158,3.0,4.0,55,0.00,,,0.00,meteohub,2013-11-03 21:46:00,
2013-11-03 15:51:00,56.7,40.6,30.03,ESE,113,0.0,4.0,55,0.00,,,0.00,meteohub,2013-11-03 21:51:00,
2013-11-03 15:56:00,56.7,40.6,30.03,ESE,113,0.0,4.0,55,0.00,,,0.00,meteohub,2013-11-03 21:56:00,
2013-11-03 16:01:00,56.7,40.6,30.03,NNE,23,2.0,4.0,55,0.00,,,0.00,meteohub,2013-11-03 22:01:00,
2013-11-03 16:06:00,56.7,40.6,30.03,ENE,68,0.0,2.0,55,0.00,,,0.00,meteohub,2013-11-03 22:06:00,
2013-11-03 16:11:00,56.7,40.6,30.03,ESE,113,2.0,4.0,55,0.00,,,0.00,meteohub,2013-11-03 22:11:00,
2013-11-03 16:16:00,56.5,41.0,30.03,ENE,68,0.0,4.0,56,0.00,,,0.00,meteohub,2013-11-03 22:16:00,
2013-11-03 16:21:00,56.3,40.3,30.03,ENE,68,3.0,4.0,55,0.00,,,0.00,meteohub,2013-11-03 22:21:00,
2013-11-03 16:26:00,56.3,40.3,30.02,ESE,113,4.0,4.0,55,0.00,,,0.00,meteohub,2013-11-03 22:26:00,
2013-11-03 16:31:00,56.3,40.8,30.02,SE,135,0.0,4.0,56,0.00,,,0.00,meteohub,2013-11-03 22:31:00,
2013-11-03 16:36:00,55.9,40.5,30.02,SE,135,2.0,4.0,56,0.00,,,0.00,meteohub,2013-11-03 22:36:00,
2013-11-03 16:41:00,55.9,40.5,30.02,ESE,113,2.0,4.0,56,0.00,,,0.00,meteohub,2013-11-03 22:41:00,
2013-11-03 16:46:00,55.8,40.3,30.02,NW,315,0.0,3.0,56,0.00,,,0.00,meteohub,2013-11-03 22:46:00,
2013-11-03 16:51:00,55.6,40.6,30.02,ESE,113,0.0,3.0,57,0.00,,,0.00,meteohub,2013-11-03 22:51:00,
2013-11-03 16:56:00,55.6,40.6,30.02,ESE,113,2.0,2.0,57,0.00,,,0.00,meteohub,2013-11-03 22:56:00,
2013-11-03 17:01:00,55.4,40.5,30.02,SSE,158,0.0,2.0,57,0.00,,,0.00,meteohub,2013-11-03 23:01:00,
2013-11-03 17:07:00,55.2,40.6,30.02,SE,135,4.0,4.0,58,0.00,,,0.00,meteohub,2013-11-03 23:07:00,
2013-11-03 17:12:00,55.0,40.5,30.02,SE,135,2.0,4.0,58,0.00,,,0.00,meteohub,2013-11-03 23:12:00,
2013-11-03 17:17:00,54.9,40.3,30.02,ESE,113,3.0,4.0,58,0.00,,,0.00,meteohub,2013-11-03 23:17:00,
2013-11-03 17:22:00,54.9,40.3,30.02,ESE,113,3.0,4.0,58,0.00,,,0.00,meteohub,2013-11-03 23:22:00,
2013-11-03 17:27:00,54.5,40.1,30.04,ESE,113,3.0,3.0,58,0.00,,,0.00,meteohub,2013-11-03 23:27:00,
2013-11-03 17:32:00,54.3,40.3,30.04,ESE,113,3.0,3.0,59,0.00,,,0.00,meteohub,2013-11-03 23:32:00,
2013-11-03 17:37:00,54.1,40.1,30.04,East,90,0.0,4.0,59,0.00,,,0.00,meteohub,2013-11-03 23:37:00,
2013-11-03 17:42:00,54.1,40.1,30.04,ESE,113,2.0,4.0,59,0.00,,,0.00,meteohub,2013-11-03 23:42:00,
2013-11-03 17:47:00,54.0,39.9,30.03,SE,135,2.0,3.0,59,0.00,,,0.00,meteohub,2013-11-03 23:47:00,
2013-11-03 17:52:00,53.8,39.7,30.03,SE,135,0.0,2.0,59,0.00,,,0.00,meteohub,2013-11-03 23:52:00,
2013-11-03 17:57:00,53.6,39.6,30.03,SE,135,0.0,2.0,59,0.00,,,0.00,meteohub,2013-11-03 23:57:00,
2013-11-03 18:02:00,53.8,40.3,30.03,ESE,113,2.0,4.0,60,0.00,,,0.00,meteohub,2013-11-04 00:02:00,
2013-11-03 18:07:00,53.6,40.1,30.04,SE,135,2.0,4.0,60,0.00,,,0.00,meteohub,2013-11-04 00:07:00,
2013-11-03 18:12:00,53.6,40.1,30.04,SE,135,2.0,4.0,60,0.00,,,0.00,meteohub,2013-11-04 00:12:00,
2013-11-03 18:17:00,53.2,39.7,30.04,ESE,113,2.0,2.0,60,0.00,,,0.00,meteohub,2013-11-04 00:17:00,
2013-11-03 18:22:00,53.4,40.3,30.04,ESE,113,2.0,3.0,61,0.00,,,0.00,meteohub,2013-11-04 00:22:00,
2013-11-03 18:27:00,53.2,40.1,30.02,SE,135,5.0,5.0,61,0.00,,,0.00,meteohub,2013-11-04 00:27:00,
2013-11-03 18:32:00,53.4,39.9,30.02,ESE,113,9.0,9.0,60,0.00,,,0.00,meteohub,2013-11-04 00:32:00,
2013-11-03 18:37:00,53.4,40.3,30.02,SSE,158,3.0,9.0,61,0.00,,,0.00,meteohub,2013-11-04 00:37:00,
2013-11-03 18:42:00,53.4,40.3,30.02,ESE,113,2.0,9.0,61,0.00,,,0.00,meteohub,2013-11-04 00:42:00,
2013-11-03 18:46:00,53.2,40.1,30.06,ESE,113,4.0,9.0,61,0.00,,,0.00,meteohub,2013-11-04 00:46:00,
2013-11-03 18:51:00,53.4,40.3,30.06,ESE,113,4.0,5.0,61,0.00,,,0.00,meteohub,2013-11-04 00:51:00,
2013-11-03 18:56:00,53.2,40.1,30.06,ESE,113,5.0,5.0,61,0.00,,,0.00,meteohub,2013-11-04 00:56:00,
2013-11-03 19:02:00,53.4,40.3,30.06,SE,135,5.0,5.0,61,0.00,,,0.00,meteohub,2013-11-04 01:02:00,
2013-11-03 19:07:00,53.4,40.3,30.04,ESE,113,2.0,5.0,61,0.00,,,0.00,meteohub,2013-11-04 01:07:00,
2013-11-03 19:12:00,53.4,40.6,30.04,SE,135,2.0,5.0,62,0.00,,,0.00,meteohub,2013-11-04 01:12:00,
2013-11-03 19:17:00,53.4,40.3,30.04,ENE,68,2.0,5.0,61,0.00,,,0.00,meteohub,2013-11-04 01:17:00,
2013-11-03 19:22:00,53.4,40.3,30.04,NW,315,3.0,5.0,61,0.00,,,0.00,meteohub,2013-11-04 01:22:00,
2013-11-03 19:27:00,53.4,40.3,30.04,East,90,0.0,5.0,61,0.00,,,0.00,meteohub,2013-11-04 01:27:00,
2013-11-03 19:32:00,53.4,40.3,30.04,ESE,113,5.0,5.0,61,0.00,,,0.00,meteohub,2013-11-04 01:32:00,
2013-11-03 19:37:00,53.4,40.3,30.04,SSE,158,2.0,5.0,61,0.00,,,0.00,meteohub,2013-11-04 01:37:00,
2013-11-03 19:42:00,53.4,40.6,30.04,SE,135,0.0,5.0,62,0.00,,,0.00,meteohub,2013-11-04 01:42:00,
2013-11-03 19:47:00,53.1,40.5,30.03,ESE,113,3.0,6.0,62,0.00,,,0.00,meteohub,2013-11-04 01:47:00,
2013-11-03 19:52:00,53.1,40.5,30.03,SE,135,4.0,6.0,62,0.00,,,0.00,meteohub,2013-11-04 01:52:00,
2013-11-03 19:57:00,53.1,40.5,30.03,ESE,113,3.0,4.0,62,0.00,,,0.00,meteohub,2013-11-04 01:57:00,
2013-11-03 20:02:00,52.9,40.3,30.03,SE,135,0.0,4.0,62,0.00,,,0.00,meteohub,2013-11-04 02:02:00,
2013-11-03 20:07:00,53.1,40.5,30.02,SE,135,3.0,4.0,62,0.00,,,0.00,meteohub,2013-11-04 02:07:00,
2013-11-03 20:12:00,52.9,40.6,30.02,ESE,113,4.0,5.0,63,0.00,,,0.00,meteohub,2013-11-04 02:12:00,
2013-11-03 20:17:00,52.9,40.6,30.02,SE,135,2.0,5.0,63,0.00,,,0.00,meteohub,2013-11-04 02:17:00,
2013-11-03 20:22:00,52.9,40.6,30.02,SE,135,6.0,6.0,63,0.00,,,0.00,meteohub,2013-11-04 02:22:00,
2013-11-03 20:27:00,52.7,40.5,30.01,ESE,113,8.0,8.0,63,0.00,,,0.00,meteohub,2013-11-04 02:27:00,
2013-11-03 20:31:00,52.7,40.5,30.01,ESE,113,7.0,8.0,63,0.00,,,0.00,meteohub,2013-11-04 02:31:00,
2013-11-03 20:37:00,52.7,40.5,30.01,ESE,113,4.0,8.0,63,0.00,,,0.00,meteohub,2013-11-04 02:37:00,
2013-11-03 20:42:00,52.7,40.8,30.01,WSW,248,0.0,8.0,64,0.00,,,0.00,meteohub,2013-11-04 02:42:00,
2013-11-03 20:47:00,52.7,40.8,30.01,SE,135,4.0,7.0,64,0.00,,,0.00,meteohub,2013-11-04 02:47:00,
2013-11-03 20:52:00,52.7,40.8,30.01,ESE,113,4.0,9.0,64,0.00,,,0.00,meteohub,2013-11-04 02:52:00,
2013-11-03 20:57:00,52.5,40.6,30.01,NNE,23,7.0,9.0,64,0.00,,,0.00,meteohub,2013-11-04 02:57:00,
2013-11-03 21:02:00,52.3,40.5,30.01,South,180,3.0,9.0,64,0.00,,,0.00,meteohub,2013-11-04 03:02:00,
2013-11-03 21:07:00,52.2,40.3,30.03,SW,225,2.0,7.0,64,0.00,,,0.00,meteohub,2013-11-04 03:07:00,
2013-11-03 21:12:00,52.3,41.0,30.03,West,270,1.0,7.0,65,0.00,,,0.00,meteohub,2013-11-04 03:12:00,
2013-11-03 21:17:00,52.0,40.6,30.03,South,180,3.0,5.0,65,0.00,,,0.00,meteohub,2013-11-04 03:17:00,
2013-11-03 21:22:00,51.8,40.8,30.03,SW,225,2.0,5.0,66,0.00,,,0.00,meteohub,2013-11-04 03:22:00,
2013-11-03 21:27:00,52.0,41.0,30.04,East,90,2.0,3.0,66,0.00,,,0.00,meteohub,2013-11-04 03:27:00,
2013-11-03 21:32:00,51.8,40.8,30.04,SE,135,3.0,4.0,66,0.00,,,0.00,meteohub,2013-11-04 03:32:00,
2013-11-03 21:37:00,51.6,40.6,30.04,SW,225,2.0,5.0,66,0.00,,,0.00,meteohub,2013-11-04 03:37:00,
2013-11-03 21:42:00,51.6,40.6,30.04,SE,135,2.0,5.0,66,0.00,,,0.00,meteohub,2013-11-04 03:42:00,
2013-11-03 21:47:00,51.4,40.8,30.04,West,270,2.0,4.0,67,0.00,,,0.00,meteohub,2013-11-04 03:47:00,
2013-11-03 21:52:00,51.4,40.8,30.04,SSE,158,0.0,4.0,67,0.00,,,0.00,meteohub,2013-11-04 03:52:00,
2013-11-03 21:57:00,51.4,40.8,30.04,SE,135,3.0,4.0,67,0.00,,,0.00,meteohub,2013-11-04 03:57:00,
2013-11-03 22:02:00,51.4,40.8,30.04,East,90,0.0,4.0,67,0.00,,,0.00,meteohub,2013-11-04 04:02:00,
2013-11-03 22:07:00,51.4,40.8,30.07,SW,225,0.0,3.0,67,0.00,,,0.00,meteohub,2013-11-04 04:07:00,
2013-11-03 22:12:00,51.3,40.6,30.07,ESE,113,1.0,5.0,67,0.00,,,0.00,meteohub,2013-11-04 04:12:00,
2013-11-03 22:17:00,51.3,40.6,30.07,ESE,113,3.0,5.0,67,0.00,,,0.00,meteohub,2013-11-04 04:17:00,
2013-11-03 22:22:00,51.3,40.6,30.07,ESE,113,3.0,5.0,67,0.00,,,0.00,meteohub,2013-11-04 04:22:00,
2013-11-03 22:27:00,51.1,40.5,30.06,South,180,4.0,4.0,67,0.00,,,0.00,meteohub,2013-11-04 04:27:00,
2013-11-03 22:32:00,51.3,40.6,30.06,ESE,113,4.0,5.0,67,0.00,,,0.00,meteohub,2013-11-04 04:32:00,
2013-11-03 22:37:00,51.1,40.8,30.06,NNE,23,4.0,6.0,68,0.00,,,0.00,meteohub,2013-11-04 04:37:00,
2013-11-03 22:42:00,50.9,40.6,30.06,ENE,68,1.0,6.0,68,0.00,,,0.00,meteohub,2013-11-04 04:42:00,
2013-11-03 22:47:00,50.9,40.6,30.04,ESE,113,6.0,6.0,68,0.00,,,0.00,meteohub,2013-11-04 04:47:00,
2013-11-03 22:52:00,50.7,40.5,30.04,ESE,113,4.0,6.0,68,0.00,,,0.00,meteohub,2013-11-04 04:52:00,
2013-11-03 22:57:00,50.7,40.5,30.04,SE,135,0.0,6.0,68,0.00,,,0.00,meteohub,2013-11-04 04:57:00,
2013-11-03 23:01:00,50.7,40.5,30.04,ENE,68,0.0,6.0,68,0.00,,,0.00,meteohub,2013-11-04 05:01:00,
2013-11-03 23:06:00,50.5,40.8,30.02,SE,135,4.0,4.0,69,0.00,,,0.00,meteohub,2013-11-04 05:06:00,
2013-11-03 23:11:00,50.5,40.8,30.02,SSE,158,2.0,4.0,69,0.00,,,0.00,meteohub,2013-11-04 05:11:00,
2013-11-03 23:16:00,50.5,40.8,30.02,East,90,2.0,4.0,69,0.00,,,0.00,meteohub,2013-11-04 05:16:00,
2013-11-03 23:21:00,50.4,40.6,30.02,East,90,3.0,4.0,69,0.00,,,0.00,meteohub,2013-11-04 05:21:00,
2013-11-03 23:26:00,50.5,40.8,30.02,ESE,113,2.0,5.0,69,0.00,,,0.00,meteohub,2013-11-04 05:26:00,
2013-11-03 23:31:00,50.5,40.8,30.02,SE,135,5.0,5.0,69,0.00,,,0.00,meteohub,2013-11-04 05:31:00,
2013-11-03 23:36:00,50.4,40.6,30.02,South,180,0.0,5.0,69,0.00,,,0.00,meteohub,2013-11-04 05:36:00,
2013-11-03 23:41:00,50.2,40.5,30.02,ESE,113,4.0,5.0,69,0.00,,,0.00,meteohub,2013-11-04 05:41:00,
2013-11-03 23:46:00,50.2,40.5,30.01,SSE,158,3.0,5.0,69,0.00,,,0.00,meteohub,2013-11-04 05:46:00,
2013-11-03 23:51:00,50.0,40.3,30.01,SE,135,4.0,5.0,69,0.00,,,0.00,meteohub,2013-11-04 05:51:00,
2013-11-03 23:56:00,50.0,40.6,30.01,SW,225,3.0,5.0,70,0.00,,,0.00,meteohub,2013-11-04 05:56:00,